createdAt,value
2019-04-23T00:02:53.443Z,19.05
2019-04-23T00:05:30.183Z,18.94
2019-04-23T00:10:27.028Z,18.75
2019-04-23T00:12:53.084Z,18.99
2019-04-23T00:15:28.915Z,18.95
2019-04-23T00:18:09.725Z,18.63
2019-04-23T00:20:39.263Z,18.85
2019-04-23T00:23:22.506Z,18.99
2019-04-23T00:25:51.086Z,18.90
2019-04-23T00:28:20.564Z,18.94
2019-04-23T00:33:25.113Z,18.97
2019-04-23T00:35:59.696Z,18.85
2019-04-23T00:38:36.569Z,18.37
2019-04-23T00:41:02.917Z,18.56
2019-04-23T00:43:32.611Z,18.43
2019-04-23T00:45:59.664Z,18.49
2019-04-23T00:48:45.598Z,18.53
2019-04-23T00:51:02.189Z,18.51
2019-04-23T00:53:40.162Z,18.32
2019-04-23T00:56:32.415Z,18.39
2019-04-23T00:58:52.860Z,18.19
2019-04-23T01:01:18.283Z,18.52
2019-04-23T01:03:55.105Z,18.54
2019-04-23T01:08:51.768Z,18.05
2019-04-23T01:14:08.311Z,18.44
2019-04-23T01:16:20.948Z,18.45
2019-04-23T01:19:24.516Z,18.32
2019-04-23T01:21:15.840Z,18.46
2019-04-23T01:24:02.748Z,18.14
2019-04-23T01:27:12.159Z,18.49
2019-04-23T01:29:32.054Z,18.14
2019-04-23T01:31:57.343Z,17.91
2019-04-23T01:34:38.956Z,17.90
2019-04-23T01:37:01.083Z,18.16
2019-04-23T01:39:39.716Z,18.19
2019-04-23T01:42:22.867Z,18.28
2019-04-23T01:47:19.853Z,18.48
2019-04-23T01:49:54.004Z,18.15
2019-04-23T01:52:24.904Z,18.20
2019-04-23T01:54:52.254Z,18.32
2019-04-23T01:57:22.879Z,18.35
2019-04-23T01:59:58.432Z,18.31
2019-04-23T02:02:27.625Z,18.30
2019-04-23T02:05:04.152Z,18.12
2019-04-23T02:07:38.810Z,18.35
2019-04-23T02:10:11.626Z,18.24
2019-04-23T02:12:42.002Z,18.14
2019-04-23T02:15:13.804Z,18.07
2019-04-23T02:20:21.867Z,18.21
2019-04-23T02:23:01.371Z,18.21
2019-04-23T02:25:44.046Z,18.28
2019-04-23T02:28:06.120Z,18.33
2019-04-23T02:43:16.156Z,18.36
2019-04-23T02:45:56.960Z,18.50
2019-04-23T02:50:47.937Z,18.48
2019-04-23T02:53:44.834Z,18.38
2019-04-23T02:56:15.160Z,18.43
2019-04-23T02:58:45.979Z,18.42
2019-04-23T03:01:15.292Z,18.43
2019-04-23T03:03:38.298Z,18.47
2019-04-23T03:06:10.193Z,18.39
2019-04-23T03:08:46.653Z,18.02
2019-04-23T03:11:18.363Z,18.31
2019-04-23T03:13:51.044Z,18.23
2019-04-23T03:16:29.479Z,18.14
2019-04-23T03:19:02.939Z,18.24
2019-04-23T03:21:51.839Z,18.15
2019-04-23T03:27:08.085Z,18.25
2019-04-23T03:29:35.585Z,18.33
2019-04-23T03:35:12.324Z,18.35
2019-04-23T03:39:40.392Z,18.23
2019-04-23T03:41:59.640Z,18.02
2019-04-23T03:44:45.312Z,18.24
2019-04-23T03:47:11.461Z,18.23
2019-04-23T03:49:43.895Z,18.09
2019-04-23T03:57:20.324Z,17.90
2019-04-23T04:04:44.571Z,18.33
2019-04-23T04:07:53.539Z,18.47
2019-04-23T04:09:51.704Z,18.51
2019-04-23T04:15:14.323Z,18.47
2019-04-23T04:18:06.565Z,18.50
2019-04-23T04:20:15.217Z,18.41
2019-04-23T04:25:17.737Z,18.72
2019-04-23T04:27:53.790Z,18.75
2019-04-23T04:30:20.777Z,19.20
2019-04-23T04:32:58.711Z,19.26
2019-04-23T04:40:33.084Z,20.29
2019-04-23T04:43:11.290Z,20.54
2019-04-23T04:45:47.435Z,21.00
2019-04-23T04:47:55.634Z,21.82
2019-04-23T04:50:24.181Z,22.54
2019-04-23T04:55:41.230Z,22.61
2019-04-23T05:01:01.384Z,22.53
2019-04-23T05:03:22.258Z,22.41
2019-04-23T05:06:05.024Z,22.04
2019-04-23T05:08:21.690Z,21.69
2019-04-23T05:13:41.330Z,22.03
2019-04-23T05:15:51.539Z,21.64
2019-04-23T05:21:07.382Z,22.24
2019-04-23T05:26:23.925Z,22.09
2019-04-23T05:31:27.843Z,22.29
2019-04-23T05:34:14.921Z,22.66
2019-04-23T05:41:36.501Z,23.52
2019-04-23T05:44:15.746Z,23.87
2019-04-23T05:46:43.446Z,23.76
2019-04-23T05:54:18.969Z,24.42
2019-04-23T05:56:54.151Z,24.79
2019-04-23T05:59:23.064Z,25.61
2019-04-23T06:09:30.494Z,26.76
2019-04-23T06:12:04.482Z,26.84
2019-04-23T06:14:40.291Z,27.16
2019-04-23T06:17:17.786Z,28.05
2019-04-23T06:19:33.123Z,28.51
2019-04-23T06:25:08.542Z,28.66
2019-04-23T06:27:22.146Z,29.37
2019-04-23T06:30:04.530Z,29.03
2019-04-23T06:32:29.434Z,29.43
2019-04-23T06:34:54.690Z,30.48
2019-04-23T06:37:39.334Z,31.18
2019-04-23T06:40:03.192Z,31.64
2019-04-23T06:42:37.689Z,33.02
2019-04-23T06:45:14.538Z,30.55
2019-04-23T06:47:37.434Z,29.12
2019-04-23T06:50:03.582Z,29.77
2019-04-23T06:52:41.144Z,29.82
2019-04-23T06:55:25.442Z,28.02
2019-04-23T06:57:48.486Z,30.10
2019-04-23T07:00:21.051Z,29.28
2019-04-23T07:02:54.078Z,31.10
2019-04-23T07:05:28.061Z,34.31
2019-04-23T07:10:30.264Z,36.47
2019-04-23T07:13:01.260Z,33.56
2019-04-23T07:15:40.856Z,35.89
2019-04-23T07:18:00.668Z,39.23
2019-04-23T07:20:30.351Z,35.99
2019-04-23T07:23:04.894Z,34.27
2019-04-23T07:25:50.023Z,35.85
2019-04-23T07:28:09.436Z,30.14
2019-04-23T07:30:33.165Z,29.35
2019-04-23T07:33:11.853Z,28.87
2019-04-23T07:35:45.953Z,30.05
2019-04-23T07:38:44.236Z,28.09
2019-04-23T07:41:23.714Z,28.95
2019-04-23T07:46:54.760Z,28.72
2019-04-23T07:49:15.112Z,28.70
2019-04-23T07:52:00.792Z,28.72
2019-04-23T07:59:41.437Z,26.35
2019-04-23T08:02:12.857Z,28.72
2019-04-23T08:04:42.624Z,27.87
2019-04-23T08:07:14.619Z,26.93
2019-04-23T08:09:51.418Z,28.74
2019-04-23T08:12:19.198Z,26.59
2019-04-23T08:14:49.682Z,27.36
2019-04-23T08:17:17.542Z,28.30
2019-04-23T08:19:54.162Z,27.64
2019-04-23T08:25:03.298Z,26.95
2019-04-23T08:27:42.062Z,29.52
2019-04-23T08:30:09.852Z,26.91
2019-04-23T08:32:49.247Z,26.91
2019-04-23T08:35:23.236Z,25.87
2019-04-23T08:38:07.887Z,26.55
2019-04-23T08:40:28.456Z,25.87
2019-04-23T08:42:52.749Z,26.89
2019-04-23T08:48:14.252Z,26.59
2019-04-23T08:50:44.029Z,25.71
2019-04-23T08:53:37.398Z,26.58
2019-04-23T08:55:49.885Z,26.59
2019-04-23T08:58:19.071Z,26.20
2019-04-23T09:08:27.294Z,26.99
2019-04-23T09:11:04.670Z,26.99
2019-04-23T09:13:50.179Z,28.92
2019-04-23T09:21:03.474Z,29.11
2019-04-23T09:23:40.894Z,29.84
2019-04-23T09:26:22.144Z,28.44
2019-04-23T09:28:45.672Z,28.76
2019-04-23T09:32:00.532Z,29.15
2019-04-23T09:34:17.205Z,28.58
2019-04-23T09:39:35.745Z,30.54
2019-04-23T09:42:32.272Z,29.96
2019-04-23T09:47:50.762Z,29.14
2019-04-23T09:50:15.551Z,29.63
2019-04-23T09:53:01.434Z,28.63
2019-04-23T09:57:51.447Z,28.98
2019-04-23T10:00:38.083Z,29.93
2019-04-23T10:02:44.804Z,29.25
2019-04-23T10:05:11.154Z,29.06
2019-04-23T10:07:46.196Z,29.66
2019-04-23T10:10:03.801Z,29.17
2019-04-23T10:12:35.631Z,28.23
2019-04-23T10:15:19.939Z,28.05
2019-04-23T10:17:44.530Z,26.97
2019-04-23T10:20:14.058Z,26.09
2019-04-23T10:22:44.154Z,26.84
2019-04-23T10:25:15.296Z,26.57
2019-04-23T10:27:45.365Z,26.58
2019-04-23T10:30:17.739Z,27.46
2019-04-23T10:32:47.590Z,27.04
2019-04-23T10:35:28.595Z,27.06
2019-04-23T10:37:56.869Z,27.21
2019-04-23T10:40:28.154Z,26.92
2019-04-23T10:42:56.019Z,26.67
2019-04-23T10:45:59.338Z,26.80
2019-04-23T10:49:00.760Z,26.75
2019-04-23T10:52:04.925Z,26.08
2019-04-23T10:56:44.824Z,26.33
2019-04-23T10:59:28.774Z,26.50
2019-04-23T11:02:17.459Z,27.13
2019-04-23T11:04:53.707Z,27.19
2019-04-23T11:09:53.041Z,27.11
2019-04-23T11:12:37.213Z,27.03
2019-04-23T11:15:13.536Z,26.40
2019-04-23T11:17:43.176Z,26.40
2019-04-23T11:25:15.939Z,26.24
2019-04-23T11:30:23.549Z,26.12
2019-04-23T11:35:23.858Z,26.21
2019-04-23T11:38:15.933Z,26.28
2019-04-23T11:40:21.141Z,26.38
2019-04-23T11:45:36.758Z,26.29
2019-04-23T11:48:14.708Z,26.12
2019-04-23T11:51:00.573Z,26.42
2019-04-23T11:53:10.550Z,26.43
2019-04-23T11:55:41.204Z,27.48
2019-04-23T11:58:07.532Z,27.20
2019-04-23T12:00:51.117Z,27.18
2019-04-23T12:03:03.027Z,27.18
2019-04-23T12:06:07.844Z,27.22
2019-04-23T12:08:41.429Z,27.40
2019-04-23T12:11:39.508Z,26.00
2019-04-23T12:13:56.632Z,26.00
2019-04-23T12:16:23.904Z,26.13
2019-04-23T12:19:25.398Z,27.02
2019-04-23T12:21:28.227Z,25.84
2019-04-23T12:24:09.679Z,26.45
2019-04-23T12:26:35.790Z,26.45
2019-04-23T12:28:57.143Z,27.25
2019-04-23T12:31:40.106Z,27.25
2019-04-23T12:34:09.640Z,28.61
2019-04-23T12:36:45.597Z,27.45
2019-04-23T12:39:27.589Z,27.47
2019-04-23T12:42:05.772Z,28.46
2019-04-23T12:44:30.709Z,27.54
2019-04-23T12:49:53.392Z,26.83
2019-04-23T12:52:12.179Z,27.36
2019-04-23T12:54:58.832Z,27.24
2019-04-23T12:59:44.608Z,27.85
2019-04-23T13:02:25.730Z,27.20
2019-04-23T13:04:54.986Z,27.24
2019-04-23T13:07:33.497Z,27.36
2019-04-23T13:10:10.175Z,27.56
2019-04-23T13:12:42.938Z,26.72
2019-04-23T13:15:10.855Z,27.14
2019-04-23T13:17:46.416Z,27.11
2019-04-23T13:22:48.943Z,26.99
2019-04-23T13:25:18.115Z,27.55
2019-04-23T13:30:35.561Z,26.76
2019-04-23T13:32:59.066Z,26.98
2019-04-23T13:38:08.905Z,26.19
2019-04-23T13:40:39.343Z,25.94
2019-04-23T13:43:12.223Z,26.19
2019-04-23T13:45:58.942Z,26.06
2019-04-23T13:55:54.206Z,26.91
2019-04-23T13:58:34.130Z,26.52
2019-04-23T14:01:09.071Z,26.31
2019-04-23T14:06:16.548Z,26.39
2019-04-23T14:16:34.320Z,26.37
2019-04-23T14:26:32.600Z,26.11
2019-04-23T14:29:19.103Z,26.25
2019-04-23T14:31:23.101Z,26.38
2019-04-23T14:36:37.693Z,26.09
2019-04-23T14:39:05.988Z,26.09
2019-04-23T14:41:32.050Z,26.37
2019-04-23T14:44:25.279Z,26.61
2019-04-23T14:47:03.489Z,26.61
2019-04-23T14:49:40.854Z,26.87
2019-04-23T14:52:09.315Z,26.86
2019-04-23T14:55:17.728Z,26.56
2019-04-23T14:59:37.727Z,25.73
2019-04-23T15:02:19.495Z,25.73
2019-04-23T15:04:54.510Z,25.03
2019-04-23T15:07:31.240Z,25.28
2019-04-23T15:17:41.281Z,25.36
2019-04-23T15:20:17.205Z,25.38
2019-04-23T15:23:05.114Z,25.25
2019-04-23T15:30:20.773Z,24.97
2019-04-23T15:33:09.791Z,24.76
2019-04-23T15:35:47.818Z,24.65
2019-04-23T15:38:26.843Z,24.91
2019-04-23T15:40:42.078Z,24.62
2019-04-23T15:45:53.866Z,25.00
2019-04-23T15:51:01.461Z,24.59
2019-04-23T15:53:14.325Z,24.88
2019-04-23T15:56:09.111Z,24.54
2019-04-23T16:01:15.414Z,24.89
2019-04-23T16:03:14.574Z,24.90
2019-04-23T16:05:44.774Z,24.62
2019-04-23T16:08:55.554Z,24.21
2019-04-23T16:11:29.625Z,24.06
2019-04-23T16:14:04.335Z,24.31
2019-04-23T16:16:28.638Z,24.29
2019-04-23T16:19:07.731Z,24.31
2019-04-23T16:21:47.984Z,23.86
2019-04-23T16:24:13.570Z,23.87
2019-04-23T16:29:27.498Z,23.81
2019-04-23T16:31:46.810Z,24.01
2019-04-23T16:34:23.957Z,23.81
2019-04-23T16:36:54.901Z,23.78
2019-04-23T16:39:21.574Z,23.25
2019-04-23T16:42:01.801Z,23.13
2019-04-23T16:44:38.330Z,23.66
2019-04-23T16:47:12.847Z,23.52
2019-04-23T16:49:33.025Z,22.99
2019-04-23T16:52:07.913Z,23.10
2019-04-23T16:54:42.244Z,23.18
2019-04-23T16:57:21.524Z,22.93
2019-04-23T17:00:01.384Z,23.20
2019-04-23T17:02:16.050Z,23.33
2019-04-23T17:04:47.263Z,23.58
2019-04-23T17:07:29.929Z,23.01
2019-04-23T17:10:00.682Z,23.12
2019-04-23T17:12:17.616Z,23.17
2019-04-23T17:14:57.631Z,22.84
2019-04-23T17:17:18.415Z,23.06
2019-04-23T17:22:31.304Z,22.61
2019-04-23T17:25:15.212Z,22.81
2019-04-23T17:30:26.295Z,22.55
2019-04-23T17:33:07.768Z,22.39
2019-04-23T17:35:40.204Z,22.57
2019-04-23T17:38:27.921Z,22.70
2019-04-23T17:40:50.158Z,22.62
2019-04-23T17:43:26.898Z,22.46
2019-04-23T17:45:46.584Z,21.89
2019-04-23T17:48:20.404Z,22.22
2019-04-23T17:51:05.695Z,22.21
2019-04-23T17:53:32.748Z,22.16
2019-04-23T17:56:26.657Z,22.37
2019-04-23T17:58:52.258Z,22.53
2019-04-23T18:03:50.465Z,22.16
2019-04-23T18:06:34.697Z,21.87
2019-04-23T18:08:49.429Z,21.91
2019-04-23T18:13:57.084Z,22.30
2019-04-23T18:21:44.098Z,21.70
2019-04-23T18:24:27.336Z,22.15
2019-04-23T18:26:51.629Z,21.97
2019-04-23T18:32:16.181Z,21.54
2019-04-23T18:35:07.180Z,21.68
2019-04-23T18:37:24.617Z,21.66
2019-04-23T18:39:48.478Z,21.67
2019-04-23T18:44:55.861Z,21.27
2019-04-23T18:47:37.074Z,21.42
2019-04-23T18:50:02.039Z,21.48
2019-04-23T18:52:41.200Z,21.56
2019-04-23T18:55:04.097Z,21.57
2019-04-23T18:57:44.387Z,21.52
2019-04-23T19:00:39.502Z,21.35
2019-04-23T19:02:58.454Z,21.43
2019-04-23T19:05:34.581Z,21.25
2019-04-23T19:08:23.467Z,21.34
2019-04-23T19:11:02.048Z,21.27
2019-04-23T19:13:39.849Z,21.27
2019-04-23T19:15:52.685Z,21.31
2019-04-23T19:18:36.421Z,21.49
2019-04-23T19:21:13.767Z,21.13
2019-04-23T19:26:27.368Z,21.31
2019-04-23T19:28:56.141Z,21.32
2019-04-23T19:31:26.385Z,21.44
2019-04-23T19:34:14.480Z,21.26
2019-04-23T19:36:49.223Z,21.19
2019-04-23T19:39:17.634Z,21.10
2019-04-23T19:41:56.623Z,21.35
2019-04-23T19:44:20.078Z,21.26
2019-04-23T19:46:54.837Z,21.16
2019-04-23T19:56:58.310Z,21.26
2019-04-23T19:59:39.639Z,20.97
2019-04-23T20:02:00.201Z,21.04
2019-04-23T20:04:42.382Z,20.92
2019-04-23T20:09:51.728Z,20.84
2019-04-23T20:12:29.344Z,20.97
2019-04-23T20:14:52.138Z,20.61
2019-04-23T20:19:48.161Z,20.79
2019-04-23T20:30:21.309Z,20.67
2019-04-23T20:35:15.594Z,20.83
2019-04-23T20:38:17.277Z,20.75
2019-04-23T20:40:31.441Z,20.25
2019-04-23T20:42:52.602Z,20.49
2019-04-23T20:45:36.131Z,20.47
2019-04-23T20:47:57.780Z,20.32
2019-04-23T20:50:26.187Z,20.35
2019-04-23T20:52:59.995Z,20.12
2019-04-23T20:55:47.896Z,20.12
2019-04-23T20:58:13.877Z,20.03
2019-04-23T21:00:59.104Z,20.11
2019-04-23T21:03:39.119Z,20.10
2019-04-23T21:06:04.320Z,20.04
2019-04-23T21:09:00.736Z,20.01
2019-04-23T21:10:58.245Z,20.05
2019-04-23T21:16:08.532Z,19.93
2019-04-23T21:18:44.883Z,19.94
2019-04-23T21:23:51.092Z,19.70
2019-04-23T21:26:08.389Z,19.93
2019-04-23T21:28:54.242Z,19.69
2019-04-23T21:31:19.499Z,19.58
2019-04-23T21:34:05.980Z,19.56
2019-04-23T21:39:12.154Z,19.57
2019-04-23T21:41:52.483Z,19.50
2019-04-23T21:44:11.817Z,19.39
2019-04-23T21:51:53.804Z,19.32
2019-04-23T21:54:20.827Z,19.83
2019-04-23T21:56:54.134Z,19.53
2019-04-23T21:59:27.557Z,19.45
2019-04-23T22:02:09.197Z,19.36
2019-04-23T22:04:43.017Z,19.57
2019-04-23T22:07:07.032Z,19.22
2019-04-23T22:09:46.077Z,19.49
2019-04-23T22:12:19.603Z,19.16
2019-04-23T22:14:57.862Z,19.46
2019-04-23T22:17:18.357Z,19.14
2019-04-23T22:22:28.705Z,19.25
2019-04-23T22:24:54.565Z,19.24
2019-04-23T22:27:27.729Z,19.40
2019-04-23T22:29:49.203Z,19.37
2019-04-23T22:32:33.947Z,19.23
2019-04-23T22:35:00.498Z,19.40
2019-04-23T22:37:29.965Z,19.14
2019-04-23T22:40:04.814Z,18.87
2019-04-23T22:43:07.361Z,19.18
2019-04-23T22:45:08.927Z,18.91
2019-04-23T22:47:47.865Z,19.15
2019-04-23T22:50:14.414Z,19.24
2019-04-23T22:52:48.532Z,19.13
2019-04-23T22:55:15.600Z,19.00
2019-04-23T23:00:16.413Z,19.01
2019-04-23T23:03:06.908Z,18.87
2019-04-23T23:08:11.407Z,18.70
2019-04-23T23:10:36.662Z,19.06
2019-04-23T23:15:49.256Z,19.05
2019-04-23T23:18:19.653Z,18.82
2019-04-23T23:20:57.487Z,18.94
2019-04-23T23:23:21.502Z,18.99
2019-04-23T23:25:54.182Z,19.13
2019-04-23T23:33:43.019Z,18.63
2019-04-23T23:36:38.752Z,18.84
2019-04-23T23:38:51.067Z,18.88
2019-04-23T23:41:19.151Z,18.90
2019-04-23T23:49:03.302Z,18.81
2019-04-23T23:51:30.853Z,18.74
2019-04-23T23:54:03.462Z,18.61
2019-04-23T23:56:30.429Z,18.76
2019-04-23T23:59:04.005Z,18.63
